Time;durP1;ratioP1;P1;durP2;ratioP2;P2;SDS_P1;SDS_P2;PMS_P1;PMS_P2;Temp;Humidity;BMP_temperature;BMP_pressure;BME280_temperature;BME280_humidity;BME280_pressure;Samples;Min_cycle;Max_cycle;Signal;HPM_P1;HPM_P2
2022/10/23 00:00:51;;;;;;;6.77;5.57;;;14.70;99.90;;;;;;5096650;28;20584;-66
2022/10/23 00:03:18;;;;;;;6.97;4.97;;;14.70;99.90;;;;;;5097580;28;20467;-67
2022/10/23 00:05:46;;;;;;;8.00;6.03;;;14.70;99.90;;;;;;5097599;28;20461;-66
2022/10/23 00:08:13;;;;;;;8.50;6.00;;;14.70;99.90;;;;;;5097625;28;20946;-67
2022/10/23 00:10:41;;;;;;;13.23;6.53;;;14.70;99.90;;;;;;5097283;28;20449;-66
2022/10/23 00:13:09;;;;;;;8.53;6.30;;;14.60;99.90;;;;;;5097195;28;20870;-67
2022/10/23 00:15:37;;;;;;;10.87;5.67;;;14.60;99.90;;;;;;5097690;28;20464;-66
2022/10/23 00:18:04;;;;;;;9.93;5.53;;;14.60;99.90;;;;;;5098249;28;20453;-67
2022/10/23 00:20:31;;;;;;;9.10;6.07;;;14.60;99.90;;;;;;5097645;28;20918;-67
2022/10/23 00:22:59;;;;;;;7.17;5.90;;;14.60;99.90;;;;;;5097426;28;20544;-66
2022/10/23 00:25:26;;;;;;;12.70;6.57;;;14.60;99.90;;;;;;5096961;28;20548;-67
2022/10/23 00:27:53;;;;;;;5.60;5.10;;;14.60;99.90;;;;;;5096784;28;20509;-68
2022/10/23 00:30:20;;;;;;;12.63;6.37;;;14.50;99.90;;;;;;5097115;28;20440;-67
2022/10/23 00:32:47;;;;;;;12.80;5.80;;;14.50;99.90;;;;;;5096727;28;20929;-67
2022/10/23 00:35:13;;;;;;;9.37;6.57;;;14.40;99.90;;;;;;5096953;28;20552;-67
2022/10/23 00:37:40;;;;;;;7.40;5.70;;;14.40;99.90;;;;;;5097095;28;20540;-67
2022/10/23 00:40:10;;;;;;;8.80;6.07;;;14.40;99.90;;;;;;5096925;28;20791;-67
2022/10/23 00:42:37;;;;;;;7.73;6.30;;;14.40;99.90;;;;;;5096591;28;20940;-67
2022/10/23 00:45:25;;;;;;;12.20;6.00;;;14.40;99.90;;;;;;5097133;28;20485;-67
2022/10/23 00:47:53;;;;;;;9.70;6.20;;;14.40;99.90;;;;;;5096712;28;20528;-67
2022/10/23 00:50:23;;;;;;;8.13;5.70;;;14.40;99.90;;;;;;5096702;28;20788;-67
2022/10/23 00:52:53;;;;;;;11.60;6.50;;;14.40;99.90;;;;;;5096610;28;20532;-67
2022/10/23 00:55:23;;;;;;;9.23;5.60;;;14.40;99.90;;;;;;5096876;28;20928;-67
2022/10/23 00:57:51;;;;;;;7.70;5.13;;;14.50;99.90;;;;;;5096297;28;20793;-67
2022/10/23 01:00:22;;;;;;;8.10;5.93;;;14.50;99.90;;;;;;5096517;28;20491;-67
2022/10/23 01:02:49;;;;;;;6.70;5.77;;;14.50;99.90;;;;;;5096341;28;20865;-67
2022/10/23 01:05:16;;;;;;;8.80;5.87;;;14.50;99.90;;;;;;5096050;28;20467;-67
2022/10/23 01:07:50;;;;;;;6.07;5.47;;;14.60;99.90;;;;;;5096210;28;20453;-66
2022/10/23 01:10:30;;;;;;;8.30;5.97;;;14.60;99.90;;;;;;5096240;28;20543;-67
2022/10/23 01:13:04;;;;;;;14.23;5.27;;;14.70;99.90;;;;;;5096229;28;20446;-66
2022/10/23 01:15:39;;;;;;;7.17;5.43;;;14.70;99.90;;;;;;5096391;28;20452;-68
2022/10/23 01:18:16;;;;;;;5.17;4.30;;;14.70;99.90;;;;;;5096306;28;20536;-68
2022/10/23 01:20:46;;;;;;;9.03;4.63;;;14.70;99.90;;;;;;5096040;28;20553;-67
2022/10/23 01:23:53;;;;;;;6.10;5.50;;;14.70;99.90;;;;;;5095800;28;20544;-67
2022/10/23 01:26:40;;;;;;;7.17;4.87;;;14.70;99.90;;;;;;5095863;28;20443;-67
2022/10/23 01:29:15;;;;;;;8.40;5.03;;;14.80;99.90;;;;;;5095543;28;20483;-68
2022/10/23 01:31:49;;;;;;;6.33;5.67;;;14.70;99.90;;;;;;5095955;28;20441;-67
2022/10/23 01:34:21;;;;;;;11.20;6.10;;;14.80;99.90;;;;;;5095816;28;20897;-67
2022/10/23 01:36:51;;;;;;;8.53;5.60;;;14.80;99.90;;;;;;5095508;28;20438;-67
2022/10/23 01:39:23;;;;;;;5.93;4.63;;;14.80;99.90;;;;;;5095677;28;20759;-68
2022/10/23 01:41:55;;;;;;;8.90;5.70;;;14.80;99.90;;;;;;5095551;28;20446;-67
2022/10/23 01:44:27;;;;;;;7.90;5.17;;;14.80;99.90;;;;;;5095671;28;20442;-67
2022/10/23 01:46:55;;;;;;;8.87;5.43;;;14.80;99.90;;;;;;5095612;28;20437;-67
2022/10/23 01:49:23;;;;;;;7.57;4.93;;;14.80;99.90;;;;;;5095444;28;20457;-66
2022/10/23 01:51:54;;;;;;;5.40;4.80;;;14.70;99.90;;;;;;5095348;28;20466;-66
2022/10/23 01:54:24;;;;;;;8.00;5.20;;;14.70;99.90;;;;;;5095552;28;20463;-66
2022/10/23 01:56:52;;;;;;;9.57;4.87;;;14.70;99.90;;;;;;5096116;28;20453;-67
2022/10/23 01:59:25;;;;;;;9.70;5.10;;;14.70;99.90;;;;;;5095273;28;20815;-67
2022/10/23 02:01:56;;;;;;;7.20;4.80;;;14.70;99.90;;;;;;5095523;28;20787;-66
2022/10/23 02:04:27;;;;;;;7.30;5.53;;;14.70;99.90;;;;;;5095257;28;20544;-67
2022/10/23 02:06:54;;;;;;;9.17;5.37;;;14.70;99.90;;;;;;5095297;28;20777;-67
2022/10/23 02:09:21;;;;;;;7.43;5.27;;;14.70;99.90;;;;;;5095349;28;20786;-67
2022/10/23 02:11:54;;;;;;;6.60;5.40;;;14.60;99.90;;;;;;5095448;28;20793;-66
2022/10/23 02:14:33;;;;;;;5.60;5.20;;;14.60;99.90;;;;;;5095686;28;20438;-67
2022/10/23 02:17:08;;;;;;;6.53;5.40;;;14.60;99.90;;;;;;5094793;28;20477;-66
2022/10/23 02:19:42;;;;;;;5.37;4.87;;;14.60;99.90;;;;;;5095172;28;20477;-67
2022/10/23 02:22:13;;;;;;;11.17;5.50;;;14.60;99.90;;;;;;5095144;28;20531;-67
2022/10/23 02:24:49;;;;;;;10.50;5.23;;;14.60;99.90;;;;;;5094820;28;20795;-67
2022/10/23 02:27:20;;;;;;;6.47;5.10;;;14.70;99.90;;;;;;5095936;28;20455;-66
2022/10/23 02:29:52;;;;;;;10.80;5.50;;;14.60;99.90;;;;;;5095172;28;20469;-67
2022/10/23 02:32:20;;;;;;;7.50;5.57;;;14.70;99.90;;;;;;5094995;28;20438;-67
2022/10/23 02:34:47;;;;;;;8.10;5.20;;;14.70;99.90;;;;;;5094752;28;20464;-68
2022/10/23 02:37:14;;;;;;;7.07;5.80;;;14.70;99.90;;;;;;5094288;28;20453;-68
2022/10/23 02:39:41;;;;;;;10.90;5.50;;;14.70;99.90;;;;;;5094599;28;20943;-66
2022/10/23 02:42:12;;;;;;;8.67;5.53;;;14.70;99.90;;;;;;5094595;28;20519;-67
2022/10/23 02:44:46;;;;;;;6.37;4.80;;;14.70;99.90;;;;;;5094547;28;20438;-66
2022/10/23 02:47:22;;;;;;;8.07;5.40;;;14.70;99.90;;;;;;5094723;28;20436;-66
2022/10/23 02:49:56;;;;;;;8.27;6.27;;;14.70;99.90;;;;;;5094637;28;20437;-66
2022/10/23 02:52:28;;;;;;;9.73;5.63;;;14.70;99.90;;;;;;5094526;28;20448;-67
2022/10/23 02:55:17;;;;;;;6.13;5.60;;;14.70;99.90;;;;;;5094377;28;20904;-68
2022/10/23 02:57:50;;;;;;;7.50;5.50;;;14.70;99.90;;;;;;5094553;28;20524;-67
2022/10/23 03:00:19;;;;;;;5.90;4.90;;;14.70;99.90;;;;;;5094850;28;20874;-66
2022/10/23 03:02:54;;;;;;;8.03;5.27;;;14.70;99.90;;;;;;5094869;28;20489;-66
2022/10/23 03:05:25;;;;;;;8.13;5.50;;;14.70;99.90;;;;;;5094519;28;20441;-66
2022/10/23 03:07:52;;;;;;;7.77;5.33;;;14.70;99.90;;;;;;5094189;28;20454;-67
2022/10/23 03:10:19;;;;;;;7.27;5.50;;;14.60;99.90;;;;;;5094910;28;20453;-67
2022/10/23 03:12:47;;;;;;;9.70;5.70;;;14.60;99.90;;;;;;5093996;28;20453;-67
2022/10/23 03:15:15;;;;;;;7.33;5.27;;;14.60;99.90;;;;;;5094378;28;20463;-67
2022/10/23 03:17:43;;;;;;;8.97;5.37;;;14.60;99.90;;;;;;5094398;28;20531;-67
2022/10/23 03:20:12;;;;;;;8.60;6.30;;;14.60;99.90;;;;;;5094373;28;20484;-67
2022/10/23 03:22:39;;;;;;;6.53;5.50;;;14.60;99.90;;;;;;5094363;28;20463;-66
2022/10/23 03:25:07;;;;;;;8.57;5.70;;;14.60;99.90;;;;;;5094248;28;20464;-67
2022/10/23 03:27:34;;;;;;;6.47;5.30;;;14.60;99.90;;;;;;5093879;28;20953;-66
2022/10/23 03:30:01;;;;;;;6.43;5.70;;;14.60;99.90;;;;;;5094343;28;20437;-67
2022/10/23 03:32:28;;;;;;;9.70;5.53;;;14.60;99.90;;;;;;5094230;28;20463;-67
2022/10/23 03:34:55;;;;;;;10.70;5.27;;;14.50;99.90;;;;;;5094536;28;20852;-67
2022/10/23 03:37:23;;;;;;;10.27;6.00;;;14.60;99.90;;;;;;5097754;28;20493;-66
2022/10/23 03:39:50;;;;;;;9.20;5.13;;;14.50;99.90;;;;;;5097508;28;20457;-67
2022/10/23 03:42:17;;;;;;;10.50;5.10;;;14.50;99.90;;;;;;5097943;28;20452;-66
2022/10/23 03:44:44;;;;;;;7.67;5.43;;;14.50;99.90;;;;;;5097854;28;20464;-69
2022/10/23 03:47:11;;;;;;;6.00;5.40;;;14.50;99.90;;;;;;5097855;28;20451;-66
2022/10/23 03:49:38;;;;;;;7.17;5.87;;;14.40;99.90;;;;;;5097879;28;20496;-67
2022/10/23 03:52:06;;;;;;;8.10;5.10;;;14.40;99.90;;;;;;5097454;28;20449;-67
2022/10/23 03:54:34;;;;;;;8.40;5.73;;;14.40;99.90;;;;;;5097428;28;20467;-66
2022/10/23 03:57:02;;;;;;;8.50;5.90;;;14.40;99.90;;;;;;5097339;28;20463;-66
2022/10/23 03:59:29;;;;;;;6.37;5.67;;;14.30;99.90;;;;;;5097776;28;20453;-66
2022/10/23 04:01:56;;;;;;;10.63;6.30;;;14.30;99.90;;;;;;5097706;28;20576;-67
2022/10/23 04:04:22;;;;;;;12.53;6.17;;;14.30;99.90;;;;;;5097276;28;20548;-66
2022/10/23 04:06:49;;;;;;;8.57;6.50;;;14.20;99.90;;;;;;5097740;28;20457;-66
2022/10/23 04:09:16;;;;;;;9.77;5.83;;;14.20;99.90;;;;;;5097238;28;20457;-67
2022/10/23 04:11:44;;;;;;;8.90;5.97;;;14.10;99.90;;;;;;5097514;28;20459;-66
2022/10/23 04:14:13;;;;;;;7.57;5.80;;;14.10;99.90;;;;;;5097197;28;20479;-67
2022/10/23 04:16:40;;;;;;;7.77;6.03;;;14.00;99.90;;;;;;5097532;28;20457;-66
2022/10/23 04:19:06;;;;;;;11.47;6.27;;;14.00;99.90;;;;;;5097268;28;20453;-67
2022/10/23 04:21:33;;;;;;;17.07;6.20;;;14.00;99.90;;;;;;5097142;28;20477;-67
2022/10/23 04:24:00;;;;;;;6.83;5.73;;;14.00;99.90;;;;;;5096962;28;21013;-66
2022/10/23 04:26:27;;;;;;;10.13;6.70;;;14.00;99.90;;;;;;5097418;28;20461;-67
2022/10/23 04:28:55;;;;;;;8.50;6.40;;;13.90;99.90;;;;;;5096941;28;20875;-67
2022/10/23 04:31:22;;;;;;;7.70;5.93;;;13.90;99.90;;;;;;5097220;28;20524;-67
2022/10/23 04:33:49;;;;;;;7.30;5.30;;;13.90;99.90;;;;;;5097172;28;20453;-67
2022/10/23 04:36:16;;;;;;;8.80;7.07;;;13.80;99.90;;;;;;5096845;28;20925;-67
2022/10/23 04:38:42;;;;;;;7.63;6.27;;;13.80;99.90;;;;;;5096705;28;20463;-66
2022/10/23 04:41:09;;;;;;;7.20;6.23;;;13.70;99.90;;;;;;5096945;28;20568;-67
2022/10/23 04:43:37;;;;;;;8.63;6.27;;;13.70;99.90;;;;;;5097313;28;20920;-67
2022/10/23 04:46:05;;;;;;;13.47;6.10;;;13.70;99.90;;;;;;5096724;28;20453;-67
2022/10/23 04:48:32;;;;;;;8.73;6.27;;;13.60;99.90;;;;;;5096698;28;20464;-67
2022/10/23 04:51:01;;;;;;;8.63;6.23;;;13.60;99.90;;;;;;5096885;28;20475;-67
2022/10/23 04:53:29;;;;;;;7.17;6.40;;;13.60;99.90;;;;;;5096370;28;20948;-66
2022/10/23 04:55:57;;;;;;;10.20;6.70;;;13.60;99.90;;;;;;5096253;28;20949;-66
2022/10/23 04:58:25;;;;;;;12.40;7.47;;;13.60;99.90;;;;;;5097054;28;20512;-66
2022/10/23 05:00:52;;;;;;;10.17;6.60;;;13.60;99.90;;;;;;5096348;28;20477;-68
2022/10/23 05:03:24;;;;;;;16.70;7.30;;;13.50;99.90;;;;;;5096375;28;20765;-67
2022/10/23 05:05:53;;;;;;;9.07;7.37;;;13.50;99.90;;;;;;5096805;28;20525;-66
2022/10/23 05:08:20;;;;;;;11.93;6.83;;;13.40;99.90;;;;;;5096276;28;20843;-66
2022/10/23 05:10:48;;;;;;;9.10;7.40;;;13.40;99.90;;;;;;5095913;28;20931;-67
2022/10/23 05:13:15;;;;;;;10.43;7.37;;;13.40;99.90;;;;;;5096238;28;20461;-67
2022/10/23 05:15:41;;;;;;;11.60;7.13;;;13.40;99.90;;;;;;5096788;28;20582;-67
2022/10/23 05:18:13;;;;;;;9.70;6.70;;;13.30;99.90;;;;;;5096129;28;20459;-66
2022/10/23 05:20:42;;;;;;;11.70;7.40;;;13.30;99.90;;;;;;5096491;28;20471;-67
2022/10/23 05:23:11;;;;;;;10.63;7.13;;;13.30;99.90;;;;;;5096209;28;20464;-67
2022/10/23 05:25:38;;;;;;;10.17;7.80;;;13.40;99.90;;;;;;5095895;28;20453;-66
2022/10/23 05:28:05;;;;;;;8.47;6.90;;;13.30;99.90;;;;;;5095494;28;20574;-66
2022/10/23 05:30:33;;;;;;;8.50;7.00;;;13.40;99.90;;;;;;5095963;28;20454;-66
2022/10/23 05:33:01;;;;;;;12.43;7.50;;;13.30;99.90;;;;;;5095642;28;20918;-67
2022/10/23 05:35:29;;;;;;;11.80;7.20;;;13.30;99.90;;;;;;5095742;28;20869;-67
2022/10/23 05:37:59;;;;;;;10.80;8.07;;;13.30;99.90;;;;;;5095646;28;20745;-67
2022/10/23 05:40:26;;;;;;;10.40;8.03;;;13.40;99.90;;;;;;5095632;28;20441;-67
2022/10/23 05:42:53;;;;;;;13.30;8.47;;;13.30;99.90;;;;;;5095438;28;20901;-66
2022/10/23 05:45:20;;;;;;;9.93;6.93;;;13.30;99.90;;;;;;5095693;28;20453;-67
2022/10/23 05:47:48;;;;;;;11.50;7.63;;;13.30;99.90;;;;;;5095776;28;20459;-68
2022/10/23 05:50:14;;;;;;;8.60;7.30;;;13.30;99.90;;;;;;5095553;28;20445;-67
2022/10/23 05:52:41;;;;;;;9.80;7.30;;;13.20;99.90;;;;;;5096175;28;20527;-67
2022/10/23 05:55:10;;;;;;;9.57;8.57;;;13.20;99.90;;;;;;5095595;28;20949;-67
2022/10/23 05:57:37;;;;;;;8.93;7.90;;;13.20;99.90;;;;;;5094755;28;20449;-67
2022/10/23 06:00:05;;;;;;;11.87;7.97;;;13.20;99.90;;;;;;5095516;28;20555;-67
2022/10/23 06:02:32;;;;;;;9.30;8.17;;;13.10;99.90;;;;;;5095353;28;20477;-67
2022/10/23 06:04:59;;;;;;;9.67;8.27;;;13.10;99.90;;;;;;5095441;28;20548;-66
2022/10/23 06:07:27;;;;;;;11.00;7.90;;;13.10;99.90;;;;;;5095083;28;20454;-67
2022/10/23 06:09:54;;;;;;;10.67;8.40;;;13.00;99.90;;;;;;5095090;28;20488;-67
2022/10/23 06:12:23;;;;;;;10.63;7.43;;;13.00;99.90;;;;;;5095195;28;20450;-67
2022/10/23 06:14:50;;;;;;;10.73;8.00;;;12.90;99.90;;;;;;5095127;28;20453;-67
2022/10/23 06:17:16;;;;;;;11.20;9.30;;;12.90;99.90;;;;;;5095172;28;20460;-67
2022/10/23 06:19:44;;;;;;;11.90;9.70;;;12.90;99.90;;;;;;5094928;28;20499;-67
2022/10/23 06:22:11;;;;;;;10.30;8.13;;;12.90;99.90;;;;;;5094930;28;20473;-66
2022/10/23 06:24:38;;;;;;;11.70;8.57;;;12.90;99.90;;;;;;5094672;28;20546;-66
2022/10/23 06:27:05;;;;;;;10.87;8.03;;;12.90;99.90;;;;;;5095064;28;20544;-68
2022/10/23 06:29:33;;;;;;;14.17;9.10;;;12.90;99.90;;;;;;5094742;28;20792;-67
2022/10/23 06:32:00;;;;;;;14.57;8.60;;;12.90;99.90;;;;;;5094698;28;20449;-67
2022/10/23 06:34:27;;;;;;;9.40;7.40;;;12.90;99.90;;;;;;5094680;28;20984;-66
2022/10/23 06:36:53;;;;;;;10.63;8.73;;;12.80;99.90;;;;;;5094997;28;20453;-66
2022/10/23 06:39:21;;;;;;;12.40;8.43;;;12.80;99.90;;;;;;5094742;28;20482;-68
2022/10/23 06:41:48;;;;;;;13.00;8.30;;;12.90;99.90;;;;;;5094682;28;20564;-68
2022/10/23 06:44:14;;;;;;;12.40;8.87;;;12.90;99.90;;;;;;5094879;28;20540;-67
2022/10/23 06:46:45;;;;;;;10.73;8.40;;;13.00;99.90;;;;;;5094462;28;20552;-68
2022/10/23 06:49:13;;;;;;;9.93;8.77;;;13.00;99.90;;;;;;5094866;28;20525;-67
2022/10/23 06:51:40;;;;;;;12.40;8.33;;;13.00;99.90;;;;;;5094691;28;20476;-67
2022/10/23 06:54:07;;;;;;;9.80;8.43;;;13.10;99.90;;;;;;5094499;28;20548;-67
2022/10/23 06:56:34;;;;;;;12.30;8.63;;;13.10;99.90;;;;;;5094337;28;20557;-67
2022/10/23 06:59:01;;;;;;;15.70;8.30;;;13.20;99.90;;;;;;5094795;28;20453;-67
2022/10/23 07:01:28;;;;;;;10.53;8.33;;;13.20;99.90;;;;;;5094262;28;20481;-66
2022/10/23 07:03:56;;;;;;;12.07;9.10;;;13.30;99.90;;;;;;5094491;28;20457;-66
2022/10/23 07:06:23;;;;;;;15.13;9.70;;;13.30;99.90;;;;;;5099232;28;20557;-68
2022/10/23 07:08:51;;;;;;;14.93;9.50;;;13.30;99.90;;;;;;5099830;28;20544;-67
2022/10/23 07:11:18;;;;;;;17.17;9.53;;;13.30;99.90;;;;;;5103869;28;20479;-68
2022/10/23 07:13:45;;;;;;;11.67;10.43;;;13.30;99.90;;;;;;5103700;28;20463;-68
2022/10/23 07:16:14;;;;;;;13.30;9.50;;;13.30;99.90;;;;;;5103930;28;20457;-68
2022/10/23 07:18:41;;;;;;;11.90;9.03;;;13.30;99.90;;;;;;5104294;28;20531;-68
2022/10/23 07:21:10;;;;;;;15.50;9.90;;;13.30;99.90;;;;;;5104402;28;20464;-68
2022/10/23 07:23:36;;;;;;;16.20;9.97;;;13.40;99.90;;;;;;5105042;28;20483;-67
2022/10/23 07:26:05;;;;;;;11.00;8.90;;;13.40;99.90;;;;;;5103980;28;20455;-68
2022/10/23 07:28:32;;;;;;;20.93;10.37;;;13.40;99.90;;;;;;5105567;28;20576;-68
2022/10/23 07:31:00;;;;;;;12.50;9.93;;;13.50;99.90;;;;;;5105501;28;20620;-68
2022/10/23 07:33:27;;;;;;;18.93;9.97;;;13.60;99.90;;;;;;5106659;28;20449;-67
2022/10/23 07:35:54;;;;;;;11.63;10.30;;;13.70;99.90;;;;;;5106827;28;20457;-68
2022/10/23 07:38:22;;;;;;;12.67;10.87;;;13.70;99.90;;;;;;5108072;28;20544;-68
2022/10/23 07:40:49;;;;;;;13.40;9.87;;;13.80;99.90;;;;;;5107713;28;20457;-68
2022/10/23 07:43:17;;;;;;;13.10;9.33;;;13.80;99.90;;;;;;5107807;28;20540;-68
2022/10/23 07:45:46;;;;;;;14.63;10.33;;;13.80;99.90;;;;;;5107629;28;20775;-68
2022/10/23 07:48:13;;;;;;;14.63;9.10;;;13.90;99.90;;;;;;5106576;28;20529;-67
2022/10/23 07:50:40;;;;;;;11.77;9.10;;;13.90;99.90;;;;;;5102815;28;20468;-67
2022/10/23 07:53:06;;;;;;;10.37;8.60;;;13.90;99.90;;;;;;5102908;28;20513;-68
2022/10/23 07:55:35;;;;;;;12.83;9.37;;;14.00;99.90;;;;;;5103449;28;20449;-68
2022/10/23 07:58:01;;;;;;;12.33;8.83;;;14.00;99.90;;;;;;5103224;28;20537;-67
2022/10/23 08:00:28;;;;;;;10.63;8.87;;;14.10;99.90;;;;;;5102914;28;20464;-68
2022/10/23 08:02:55;;;;;;;9.50;8.50;;;14.10;99.90;;;;;;5102630;28;20495;-68
2022/10/23 08:05:22;;;;;;;11.10;8.90;;;14.10;99.90;;;;;;5102713;28;20806;-68
2022/10/23 08:07:49;;;;;;;11.33;8.87;;;14.10;99.90;;;;;;5102973;28;20457;-67
2022/10/23 08:10:16;;;;;;;12.00;7.70;;;14.20;99.90;;;;;;5104252;28;20449;-67
2022/10/23 08:12:44;;;;;;;9.83;8.83;;;14.20;99.90;;;;;;5104601;28;21020;-68
2022/10/23 08:15:11;;;;;;;9.77;7.70;;;14.30;99.90;;;;;;5103327;28;20892;-67
2022/10/23 08:17:38;;;;;;;9.93;7.90;;;14.30;99.90;;;;;;5104255;28;20463;-68
2022/10/23 08:20:05;;;;;;;10.90;8.47;;;14.30;99.90;;;;;;5104455;28;20552;-68
2022/10/23 08:22:33;;;;;;;15.37;8.27;;;14.40;99.90;;;;;;5103964;28;20487;-67
2022/10/23 08:25:00;;;;;;;11.47;7.77;;;14.40;99.90;;;;;;5104171;28;20468;-68
2022/10/23 08:27:27;;;;;;;12.10;8.50;;;14.50;99.90;;;;;;5104195;28;20521;-67
2022/10/23 08:29:55;;;;;;;8.80;6.60;;;14.60;99.90;;;;;;5085983;28;20484;-67
2022/10/23 08:32:22;;;;;;;10.10;7.50;;;14.60;99.90;;;;;;5104400;28;20906;-68
2022/10/23 08:34:49;;;;;;;10.17;7.43;;;14.60;99.90;;;;;;5104394;28;20449;-68
2022/10/23 08:37:16;;;;;;;9.87;7.40;;;14.70;99.90;;;;;;5103011;28;20532;-68
2022/10/23 08:39:42;;;;;;;10.70;7.47;;;14.80;99.90;;;;;;5103503;28;20547;-67
2022/10/23 08:42:19;;;;;;;7.73;6.93;;;14.80;99.90;;;;;;5104157;28;20477;-67
2022/10/23 08:44:54;;;;;;;9.63;7.77;;;14.90;99.90;;;;;;5103367;28;20438;-67
2022/10/23 08:47:29;;;;;;;12.37;7.13;;;15.00;99.90;;;;;;5102741;28;20451;-68
2022/10/23 08:50:02;;;;;;;8.87;6.93;;;15.10;99.90;;;;;;5103154;28;20433;-68
2022/10/23 08:52:33;;;;;;;16.67;8.00;;;15.20;99.90;;;;;;5102490;28;20441;-68
2022/10/23 08:55:12;;;;;;;9.40;7.13;;;15.30;99.90;;;;;;5102688;28;20521;-67
2022/10/23 08:57:45;;;;;;;8.90;7.63;;;15.40;99.90;;;;;;5100641;28;20451;-68
2022/10/23 09:00:14;;;;;;;9.80;7.10;;;15.50;99.90;;;;;;5101607;28;20559;-68
2022/10/23 09:02:44;;;;;;;8.17;7.30;;;15.50;99.90;;;;;;5102063;28;20555;-68
2022/10/23 09:05:15;;;;;;;7.97;7.10;;;15.60;99.90;;;;;;5105354;28;20560;-69
2022/10/23 09:07:55;;;;;;;10.87;7.50;;;15.60;99.90;;;;;;5103513;28;20449;-68
2022/10/23 09:10:40;;;;;;;12.33;7.50;;;15.70;99.90;;;;;;5105061;28;20918;-68
2022/10/23 09:13:27;;;;;;;12.30;7.17;;;15.80;99.90;;;;;;5102815;28;20822;-67
2022/10/23 09:16:06;;;;;;;9.50;7.20;;;15.80;99.90;;;;;;5102364;28;20437;-68
2022/10/23 09:18:34;;;;;;;7.30;5.83;;;16.00;99.90;;;;;;5101706;28;20879;-67
2022/10/23 09:21:01;;;;;;;10.20;6.13;;;16.00;99.90;;;;;;5102704;28;20460;-66
2022/10/23 09:23:28;;;;;;;8.27;5.73;;;16.10;99.90;;;;;;5102300;28;20549;-69
2022/10/23 09:25:55;;;;;;;7.40;6.20;;;16.20;99.90;;;;;;5102433;28;20457;-68
2022/10/23 09:28:24;;;;;;;9.97;5.17;;;16.30;99.90;;;;;;5101355;28;20477;-68
2022/10/23 09:30:52;;;;;;;6.23;5.50;;;16.50;99.90;;;;;;5102587;28;20475;-70
2022/10/23 09:33:21;;;;;;;7.17;4.70;;;16.50;99.90;;;;;;5104475;28;20824;-69
2022/10/23 09:35:55;;;;;;;7.70;4.90;;;16.60;99.90;;;;;;5103021;28;20468;-69
2022/10/23 09:38:28;;;;;;;7.33;5.47;;;16.60;99.90;;;;;;5102797;28;20433;-69
2022/10/23 09:40:56;;;;;;;7.33;5.50;;;16.70;99.90;;;;;;5102863;28;20448;-68
2022/10/23 09:43:26;;;;;;;8.43;5.40;;;16.70;99.90;;;;;;5102741;28;20481;-68
2022/10/23 09:46:01;;;;;;;8.83;6.20;;;16.80;99.90;;;;;;5101511;28;20449;-68
2022/10/23 09:48:28;;;;;;;6.87;4.90;;;16.90;99.90;;;;;;5102454;28;20884;-68
2022/10/23 09:50:58;;;;;;;7.60;5.23;;;16.90;99.90;;;;;;5102296;28;20464;-68
2022/10/23 09:53:30;;;;;;;5.40;4.00;;;17.10;99.90;;;;;;5102675;28;20533;-68
2022/10/23 09:56:00;;;;;;;6.83;4.60;;;17.10;99.90;;;;;;5102670;28;20442;-68
2022/10/23 09:58:35;;;;;;;6.10;4.00;;;17.20;99.90;;;;;;5103912;28;20449;-67
2022/10/23 10:01:02;;;;;;;8.40;4.40;;;17.30;99.90;;;;;;5103718;28;20450;-68
2022/10/23 10:03:29;;;;;;;9.33;4.30;;;17.30;99.90;;;;;;5103741;28;20485;-68
2022/10/23 10:06:00;;;;;;;6.10;3.70;;;17.30;99.90;;;;;;5104075;28;20537;-69
2022/10/23 10:08:40;;;;;;;9.20;3.90;;;17.30;99.90;;;;;;5101458;28;20442;-69
2022/10/23 10:11:13;;;;;;;6.00;3.87;;;17.40;99.90;;;;;;5101235;28;20541;-68
2022/10/23 10:14:09;;;;;;;6.00;3.67;;;17.40;99.90;;;;;;5101871;28;20525;-67
2022/10/23 10:16:44;;;;;;;4.53;3.73;;;17.40;99.90;;;;;;5100819;28;20442;-68
2022/10/23 10:19:29;;;;;;;5.63;3.90;;;17.50;99.90;;;;;;5101437;28;20452;-68
2022/10/23 10:22:07;;;;;;;8.70;3.50;;;17.60;99.90;;;;;;5100975;28;20441;-69
2022/10/23 10:24:41;;;;;;;11.23;3.90;;;17.70;99.90;;;;;;5101523;28;20921;-67
2022/10/23 10:27:23;;;;;;;6.30;3.33;;;17.80;99.90;;;;;;5102088;28;20513;-67
2022/10/23 10:30:02;;;;;;;4.50;3.20;;;17.90;99.90;;;;;;5100937;28;20534;-68
2022/10/23 10:32:39;;;;;;;6.67;2.63;;;17.90;99.90;;;;;;5101210;28;20429;-68
2022/10/23 10:35:37;;;;;;;5.10;2.70;;;17.90;99.90;;;;;;5100987;28;20448;-68
2022/10/23 10:38:20;;;;;;;4.93;3.07;;;18.00;99.90;;;;;;5094383;28;20461;-67
2022/10/23 10:41:06;;;;;;;4.97;2.90;;;18.20;99.90;;;;;;5100471;28;20498;-66
2022/10/23 10:43:43;;;;;;;4.60;2.90;;;18.40;99.90;;;;;;5101030;28;20487;-68
2022/10/23 10:46:21;;;;;;;9.70;3.83;;;18.50;99.90;;;;;;5100793;28;20528;-68
2022/10/23 10:48:52;;;;;;;3.20;2.73;;;18.60;99.90;;;;;;5101335;28;20453;-66
2022/10/23 10:51:28;;;;;;;5.67;2.57;;;18.70;99.90;;;;;;5101140;28;20805;-68
2022/10/23 10:54:09;;;;;;;4.80;2.57;;;18.80;99.90;;;;;;5101148;28;20444;-68
2022/10/23 10:56:41;;;;;;;2.50;2.10;;;18.80;99.90;;;;;;5100669;28;20842;-68
2022/10/23 10:59:16;;;;;;;3.57;2.57;;;19.00;99.90;;;;;;5100854;28;20448;-68
2022/10/23 11:01:46;;;;;;;5.90;2.47;;;19.10;99.90;;;;;;5099284;28;20490;-68
2022/10/23 11:04:22;;;;;;;5.53;2.63;;;19.10;99.90;;;;;;5100074;28;20552;-68
2022/10/23 11:06:52;;;;;;;3.40;2.70;;;19.20;99.90;;;;;;5100506;28;20536;-68
2022/10/23 11:09:25;;;;;;;4.27;2.90;;;19.20;99.90;;;;;;5101595;28;20465;-68
2022/10/23 11:11:52;;;;;;;7.93;3.17;;;19.20;99.90;;;;;;5101792;28;20440;-68
2022/10/23 11:14:21;;;;;;;4.20;3.17;;;19.20;99.90;;;;;;5101845;28;20555;-68
2022/10/23 11:16:51;;;;;;;6.70;3.50;;;19.20;99.90;;;;;;5100664;28;20464;-68
2022/10/23 11:19:22;;;;;;;3.70;3.10;;;19.20;99.90;;;;;;5101208;28;20521;-68
2022/10/23 11:21:57;;;;;;;3.43;3.07;;;19.30;99.90;;;;;;5102261;28;20467;-68
2022/10/23 11:25:06;;;;;;;4.50;3.40;;;19.40;99.90;;;;;;5101646;28;20469;-68
2022/10/23 11:27:47;;;;;;;4.00;3.50;;;19.50;99.90;;;;;;5101484;28;20456;-68
2022/10/23 11:30:22;;;;;;;4.90;3.60;;;19.60;99.90;;;;;;5102495;28;20473;-68
2022/10/23 11:33:05;;;;;;;6.40;3.77;;;19.60;99.90;;;;;;5101294;28;20500;-68
2022/10/23 11:35:48;;;;;;;10.70;4.10;;;19.80;99.90;;;;;;5101708;28;20473;-68
2022/10/23 11:38:17;;;;;;;8.90;4.40;;;20.10;99.90;;;;;;5101256;28;20433;-68
2022/10/23 11:40:49;;;;;;;5.53;4.20;;;20.40;99.90;;;;;;5101252;28;20788;-68
2022/10/23 11:43:26;;;;;;;7.77;4.27;;;20.60;99.90;;;;;;5102048;28;20462;-69
2022/10/23 11:45:53;;;;;;;5.50;3.87;;;20.90;99.90;;;;;;5101401;28;20531;-68
2022/10/23 11:48:22;;;;;;;7.93;3.90;;;21.30;99.90;;;;;;5099991;28;20463;-69
2022/10/23 11:50:52;;;;;;;4.40;3.90;;;21.90;99.90;;;;;;5098067;28;20472;-68
2022/10/23 11:53:39;;;;;;;5.23;3.50;;;22.60;99.90;;;;;;5097082;28;20779;-68
2022/10/23 11:56:25;;;;;;;8.03;4.10;;;23.60;99.90;;;;;;5096615;28;20437;-68
2022/10/23 11:58:55;;;;;;;3.83;3.40;;;24.60;99.90;;;;;;5100348;28;20758;-68
2022/10/23 12:01:30;;;;;;;8.60;3.40;;;25.40;99.90;;;;;;5101045;28;20463;-68
2022/10/23 12:04:02;;;;;;;4.50;3.13;;;25.80;99.90;;;;;;5100513;28;20475;-68
2022/10/23 12:06:32;;;;;;;4.33;3.60;;;26.00;99.90;;;;;;5101735;28;20448;-69
2022/10/23 12:09:09;;;;;;;6.20;3.60;;;26.00;99.90;;;;;;5100479;28;20444;-68
2022/10/23 12:11:46;;;;;;;4.93;2.87;;;26.20;99.90;;;;;;5101156;28;20540;-68
2022/10/23 12:14:26;;;;;;;6.57;3.17;;;26.40;99.90;;;;;;5100702;28;20447;-68
2022/10/23 12:16:53;;;;;;;4.70;3.00;;;26.70;99.90;;;;;;5103697;28;20533;-69
2022/10/23 12:19:22;;;;;;;7.13;3.10;;;26.90;99.90;;;;;;5105672;28;20528;-69
2022/10/23 12:21:52;;;;;;;5.70;3.10;;;27.50;99.90;;;;;;5106470;28;20453;-68
2022/10/23 12:24:40;;;;;;;3.63;2.47;;;27.80;99.90;;;;;;5105035;28;20476;-68
2022/10/23 12:27:18;;;;;;;8.27;2.83;;;27.60;99.90;;;;;;5101849;28;20437;-68
2022/10/23 12:30:18;;;;;;;4.07;3.43;;;27.40;99.90;;;;;;5100575;28;20511;-67
2022/10/23 12:32:59;;;;;;;5.03;2.70;;;27.10;99.90;;;;;;5101436;28;20512;-68
2022/10/23 12:35:47;;;;;;;4.67;2.50;;;26.30;99.90;;;;;;5101120;28;20442;-67
2022/10/23 12:38:16;;;;;;;7.60;5.60;;;26.00;99.90;;;;;;5100029;28;20433;-67
2022/10/23 12:40:45;;;;;;;6.23;3.60;;;25.50;99.90;;;;;;5100190;28;20490;-68
2022/10/23 12:43:25;;;;;;;3.67;2.90;;;25.30;99.90;;;;;;5099311;28;20572;-68
2022/10/23 12:45:52;;;;;;;3.63;2.63;;;24.80;99.90;;;;;;5099717;28;20580;-68
2022/10/23 12:48:20;;;;;;;5.33;2.33;;;24.20;99.90;;;;;;5100608;28;20515;-68
2022/10/23 12:50:50;;;;;;;6.43;2.50;;;23.60;99.90;;;;;;5100314;28;20465;-68
2022/10/23 12:53:18;;;;;;;7.30;2.90;;;23.20;99.90;;;;;;5100376;28;20479;-68
2022/10/23 12:55:53;;;;;;;7.70;3.00;;;22.90;99.90;;;;;;5100139;28;20453;-68
2022/10/23 12:58:24;;;;;;;4.80;2.50;;;22.70;99.90;;;;;;5102139;28;20513;-68
2022/10/23 13:00:51;;;;;;;3.63;2.40;;;22.20;99.90;;;;;;5103133;28;20753;-68